createdAt,value
2018-06-03T00:00:40.966Z,1005.85
2018-06-03T00:01:40.973Z,1005.84
2018-06-03T00:02:40.971Z,1005.82
2018-06-03T00:03:40.963Z,1005.84
2018-06-03T00:04:40.979Z,1005.80
2018-06-03T00:05:40.947Z,1005.87
2018-06-03T00:06:40.947Z,1005.84
2018-06-03T00:07:40.921Z,1005.89
2018-06-03T00:08:40.912Z,1005.89
2018-06-03T00:09:40.985Z,1005.90
2018-06-03T00:10:40.928Z,1005.89
2018-06-03T00:11:40.920Z,1005.86
2018-06-03T00:12:40.874Z,1005.82
2018-06-03T00:13:40.863Z,1005.86
2018-06-03T00:14:40.860Z,1005.84
2018-06-03T00:15:40.850Z,1005.84
2018-06-03T00:16:40.859Z,1005.83
2018-06-03T00:17:40.842Z,1005.87
2018-06-03T00:18:40.827Z,1005.88
2018-06-03T00:19:40.825Z,1005.85
2018-06-03T00:20:40.809Z,1005.85
2018-06-03T00:21:40.813Z,1005.83
2018-06-03T00:22:40.821Z,1005.84
2018-06-03T00:23:40.823Z,1005.81
2018-06-03T00:24:40.776Z,1005.81
2018-06-03T00:25:40.770Z,1005.81
2018-06-03T00:26:40.763Z,1005.84
2018-06-03T00:27:40.790Z,1005.82
2018-06-03T00:28:40.744Z,1005.81
2018-06-03T00:29:40.728Z,1005.77
2018-06-03T00:30:40.708Z,1005.80
2018-06-03T00:31:40.716Z,1005.82
2018-06-03T00:32:40.747Z,1005.77
2018-06-03T00:33:40.703Z,1005.79
2018-06-03T00:34:40.693Z,1005.78
2018-06-03T00:35:40.675Z,1005.81
2018-06-03T00:36:40.679Z,1005.84
2018-06-03T00:37:40.693Z,1005.80
2018-06-03T00:38:40.660Z,1005.80
2018-06-03T00:39:40.678Z,1005.81
2018-06-03T00:40:40.636Z,1005.80
2018-06-03T00:41:40.635Z,1005.80
2018-06-03T00:42:40.618Z,1005.79
2018-06-03T00:43:40.619Z,1005.79
2018-06-03T00:44:40.648Z,1005.80
2018-06-03T00:45:40.599Z,1005.81
2018-06-03T00:46:40.597Z,1005.80
2018-06-03T00:47:40.574Z,1005.78
2018-06-03T00:48:40.574Z,1005.79
2018-06-03T00:49:40.740Z,1005.76
2018-06-03T00:50:40.545Z,1005.76
2018-06-03T00:51:40.545Z,1005.74
2018-06-03T00:52:40.564Z,1005.79
2018-06-03T00:53:40.519Z,1005.76
2018-06-03T00:54:40.561Z,1005.77
2018-06-03T00:55:40.547Z,1005.77
2018-06-03T00:56:40.512Z,1005.78
2018-06-03T00:57:40.507Z,1005.77
2018-06-03T00:58:40.733Z,1005.79
2018-06-03T00:59:40.478Z,1005.74
2018-06-03T01:00:40.468Z,1005.78
2018-06-03T01:01:40.474Z,1005.79
2018-06-03T01:02:40.449Z,1005.82
2018-06-03T01:03:40.444Z,1005.83
2018-06-03T01:04:40.793Z,1005.78
2018-06-03T01:05:40.433Z,1005.79
2018-06-03T01:06:40.412Z,1005.77
2018-06-03T01:07:40.413Z,1005.80
2018-06-03T01:08:40.413Z,1005.79
2018-06-03T01:09:40.401Z,1005.78
2018-06-03T01:10:40.391Z,1005.78
2018-06-03T01:11:40.362Z,1005.78
2018-06-03T01:12:40.361Z,1005.78
2018-06-03T01:13:40.363Z,1005.82
2018-06-03T01:14:40.341Z,1005.79
2018-06-03T01:15:40.404Z,1005.75
2018-06-03T01:16:40.330Z,1005.77
2018-06-03T01:17:40.329Z,1005.71
2018-06-03T01:18:40.312Z,1005.75
2018-06-03T01:19:40.307Z,1005.72
2018-06-03T01:20:40.291Z,1005.71
2018-06-03T01:21:40.339Z,1005.69
2018-06-03T01:22:40.282Z,1005.75
2018-06-03T01:23:40.270Z,1005.69
2018-06-03T01:24:40.266Z,1005.71
2018-06-03T01:25:40.240Z,1005.71
2018-06-03T01:26:40.277Z,1005.68
2018-06-03T01:27:40.228Z,1005.68
2018-06-03T01:28:40.259Z,1005.69
2018-06-03T01:29:40.258Z,1005.72
2018-06-03T01:30:40.199Z,1005.70
2018-06-03T01:31:40.202Z,1005.65
2018-06-03T01:32:40.185Z,1005.68
2018-06-03T01:33:40.238Z,1005.69
2018-06-03T01:34:40.169Z,1005.69
2018-06-03T01:35:40.157Z,1005.69
2018-06-03T01:36:40.163Z,1005.65
2018-06-03T01:37:40.146Z,1005.64
2018-06-03T01:38:40.141Z,1005.60
2018-06-03T01:39:40.127Z,1005.61
2018-06-03T01:40:40.123Z,1005.58
2018-06-03T01:41:40.114Z,1005.57
2018-06-03T01:42:40.095Z,1005.59
2018-06-03T01:43:40.098Z,1005.61
2018-06-03T01:44:40.204Z,1005.60
2018-06-03T01:45:40.066Z,1005.59
2018-06-03T01:46:40.101Z,1005.60
2018-06-03T01:47:40.064Z,1005.61
2018-06-03T01:48:40.045Z,1005.61
2018-06-03T01:49:40.031Z,1005.60
2018-06-03T01:50:40.061Z,1005.58
2018-06-03T01:51:40.020Z,1005.58
2018-06-03T01:52:40.014Z,1005.56
2018-06-03T01:53:40.005Z,1005.57
2018-06-03T01:54:40.061Z,1005.56
2018-06-03T01:55:39.984Z,1005.54
2018-06-03T01:56:39.973Z,1005.54
2018-06-03T01:57:39.994Z,1005.57
2018-06-03T01:58:39.960Z,1005.55
2018-06-03T01:59:39.954Z,1005.52
2018-06-03T02:00:39.999Z,1005.54
2018-06-03T02:01:39.929Z,1005.56
2018-06-03T02:02:39.945Z,1005.54
2018-06-03T02:03:39.927Z,1005.52
2018-06-03T02:04:39.903Z,1005.54
2018-06-03T02:05:39.917Z,1005.49
2018-06-03T02:06:39.976Z,1005.48
2018-06-03T02:07:40.088Z,1005.49
2018-06-03T02:08:39.869Z,1005.48
2018-06-03T02:09:39.865Z,1005.49
2018-06-03T02:10:39.861Z,1005.50
2018-06-03T02:11:39.890Z,1005.48
2018-06-03T02:12:39.863Z,1005.48
2018-06-03T02:13:39.831Z,1005.46
2018-06-03T02:14:39.823Z,1005.46
2018-06-03T02:15:40.739Z,1005.48
2018-06-03T02:16:39.816Z,1005.48
2018-06-03T02:17:39.789Z,1005.43
2018-06-03T02:18:39.773Z,1005.45
2018-06-03T02:19:39.779Z,1005.43
2018-06-03T02:20:39.761Z,1005.45
2018-06-03T02:21:39.780Z,1005.44
2018-06-03T02:22:39.779Z,1005.42
2018-06-03T02:23:40.102Z,1005.43
2018-06-03T02:24:39.767Z,1005.44
2018-06-03T02:25:39.717Z,1005.40
2018-06-03T02:26:39.715Z,1005.41
2018-06-03T02:27:39.758Z,1005.42
2018-06-03T02:28:39.701Z,1005.41
2018-06-03T02:29:39.725Z,1005.44
2018-06-03T02:30:39.698Z,1005.45
2018-06-03T02:31:39.682Z,1005.46
2018-06-03T02:32:39.655Z,1005.45
2018-06-03T02:33:39.656Z,1005.47
2018-06-03T02:34:39.675Z,1005.43
2018-06-03T02:35:39.635Z,1005.44
2018-06-03T02:36:39.624Z,1005.41
2018-06-03T02:37:39.628Z,1005.40
2018-06-03T02:38:39.602Z,1005.44
2018-06-03T02:39:39.630Z,1005.41
2018-06-03T02:40:39.600Z,1005.42
2018-06-03T02:41:39.593Z,1005.39
2018-06-03T02:42:39.584Z,1005.40
2018-06-03T02:43:39.574Z,1005.39
2018-06-03T02:44:39.615Z,1005.41
2018-06-03T02:45:39.555Z,1005.38
2018-06-03T02:46:39.543Z,1005.37
2018-06-03T02:47:39.534Z,1005.40
2018-06-03T02:48:39.535Z,1005.42
2018-06-03T02:49:40.260Z,1005.42
2018-06-03T02:50:40.337Z,1005.39
2018-06-03T02:51:39.500Z,1005.42
2018-06-03T02:52:39.510Z,1005.42
2018-06-03T02:53:39.527Z,1005.38
2018-06-03T02:54:39.517Z,1005.41
2018-06-03T02:55:39.810Z,1005.42
2018-06-03T02:56:39.501Z,1005.42
2018-06-03T02:57:39.451Z,1005.42
2018-06-03T02:58:39.443Z,1005.42
2018-06-03T02:59:39.458Z,1005.40
2018-06-03T03:00:39.610Z,1005.43
2018-06-03T03:01:39.440Z,1005.45
2018-06-03T03:02:39.413Z,1005.42
2018-06-03T03:03:39.408Z,1005.41
2018-06-03T03:04:39.385Z,1005.46
2018-06-03T03:05:39.408Z,1005.45
2018-06-03T03:06:39.413Z,1005.41
2018-06-03T03:07:39.348Z,1005.45
2018-06-03T03:08:39.370Z,1005.47
2018-06-03T03:09:39.355Z,1005.48
2018-06-03T03:10:41.337Z,1005.51
2018-06-03T03:11:40.341Z,1005.51
2018-06-03T03:12:39.329Z,1005.54
2018-06-03T03:13:39.348Z,1005.55
2018-06-03T03:14:39.358Z,1005.53
2018-06-03T03:15:39.293Z,1005.51
2018-06-03T03:16:39.296Z,1005.54
2018-06-03T03:17:39.284Z,1005.47
2018-06-03T03:18:40.265Z,1005.47
2018-06-03T03:19:39.348Z,1005.46
2018-06-03T03:20:40.773Z,1005.49
2018-06-03T03:21:39.804Z,1005.49
2018-06-03T03:22:39.295Z,1005.46
2018-06-03T03:23:39.827Z,1005.49
2018-06-03T03:24:39.774Z,1005.50
2018-06-03T03:25:39.201Z,1005.47
2018-06-03T03:26:39.767Z,1005.48
2018-06-03T03:27:39.187Z,1005.48
2018-06-03T03:28:39.204Z,1005.49
2018-06-03T03:29:39.761Z,1005.47
2018-06-03T03:30:39.181Z,1005.46
2018-06-03T04:32:46.560Z,1005.63
2018-06-03T04:33:46.538Z,1005.66
2018-06-03T04:34:46.528Z,1005.66
2018-06-03T04:35:46.729Z,1005.66
2018-06-03T04:36:46.500Z,1005.67
2018-06-03T04:37:46.498Z,1005.68
2018-06-03T04:38:46.474Z,1005.66
2018-06-03T04:39:46.473Z,1005.66
2018-06-03T04:40:46.506Z,1005.67
2018-06-03T04:41:46.485Z,1005.66
2018-06-03T04:42:46.449Z,1005.67
2018-06-03T04:43:46.426Z,1005.71
2018-06-03T04:44:46.419Z,1005.72
2018-06-03T04:45:46.410Z,1005.73
2018-06-03T04:46:46.761Z,1005.72
2018-06-03T04:47:46.390Z,1005.71
2018-06-03T04:48:46.410Z,1005.73
2018-06-03T04:49:46.376Z,1005.71
2018-06-03T04:50:46.369Z,1005.71
2018-06-03T04:51:46.356Z,1005.73
2018-06-03T04:52:46.489Z,1005.76
2018-06-03T04:53:46.337Z,1005.75
2018-06-03T04:54:46.329Z,1005.77
2018-06-03T04:55:46.319Z,1005.74
2018-06-03T04:56:46.307Z,1005.80
2018-06-03T04:57:46.304Z,1005.79
2018-06-03T04:58:46.742Z,1005.83
2018-06-03T04:59:46.272Z,1005.83
2018-06-03T05:00:46.286Z,1005.80
2018-06-03T05:01:46.267Z,1005.82
2018-06-03T05:02:46.263Z,1005.86
2018-06-03T05:03:46.245Z,1005.85
2018-06-03T05:04:46.324Z,1005.88
2018-06-03T05:05:46.231Z,1005.88
2018-06-03T05:06:46.221Z,1005.90
2018-06-03T05:07:46.207Z,1005.89
2018-06-03T05:08:46.191Z,1005.93
2018-06-03T05:09:46.186Z,1005.88
2018-06-03T05:10:46.194Z,1005.88
2018-06-03T05:11:46.171Z,1005.91
2018-06-03T05:12:46.170Z,1005.91
2018-06-03T05:13:46.149Z,1005.89
2018-06-03T05:14:46.184Z,1005.88
2018-06-03T05:15:46.146Z,1005.90
2018-06-03T05:16:46.150Z,1005.91
2018-06-03T05:17:46.133Z,1005.90
2018-06-03T05:18:46.112Z,1005.91
2018-06-03T05:19:46.100Z,1005.92
2018-06-03T05:20:46.097Z,1005.88
2018-06-03T05:21:46.122Z,1005.90
2018-06-03T05:22:46.091Z,1005.88
2018-06-03T05:23:46.077Z,1005.89
2018-06-03T05:24:46.063Z,1005.91
2018-06-03T05:25:46.051Z,1005.88
2018-06-03T05:26:46.077Z,1005.90
2018-06-03T05:27:46.058Z,1005.90
2018-06-03T05:28:46.031Z,1005.89
2018-06-03T05:29:46.054Z,1005.89
2018-06-03T05:30:46.014Z,1005.92
2018-06-03T05:31:45.993Z,1005.92
2018-06-03T05:32:45.995Z,1005.90
2018-06-03T05:33:46.134Z,1005.92
2018-06-03T05:34:45.973Z,1005.93
2018-06-03T05:35:45.967Z,1005.96
2018-06-03T05:36:45.952Z,1005.90
2018-06-03T05:37:45.961Z,1005.91
2018-06-03T05:38:45.946Z,1005.88
2018-06-03T05:39:46.091Z,1005.88
2018-06-03T05:40:45.927Z,1005.86
2018-06-03T05:41:45.914Z,1005.89
2018-06-03T05:42:45.913Z,1005.88
2018-06-03T05:43:45.903Z,1005.89
2018-06-03T05:44:45.891Z,1005.89
2018-06-03T05:45:45.893Z,1005.91
2018-06-03T05:46:45.874Z,1005.91
2018-06-03T05:47:45.865Z,1005.93
2018-06-03T05:48:45.861Z,1005.91
2018-06-03T05:49:45.850Z,1005.90
2018-06-03T05:50:45.863Z,1005.91
2018-06-03T05:51:45.832Z,1005.89
2018-06-03T05:52:45.821Z,1005.93
2018-06-03T05:53:45.820Z,1005.91
2018-06-03T05:54:45.809Z,1005.92
2018-06-03T05:55:45.803Z,1005.94
2018-06-03T05:56:45.841Z,1005.92
2018-06-03T05:57:45.785Z,1005.95
2018-06-03T05:58:45.782Z,1005.98
2018-06-03T05:59:45.759Z,1006.01
2018-06-03T06:00:45.760Z,1005.99
2018-06-03T06:01:45.754Z,1005.98
2018-06-03T06:02:45.744Z,1006.00
2018-06-03T06:03:45.727Z,1005.99
2018-06-03T06:04:45.716Z,1006.01
2018-06-03T06:05:45.717Z,1006.02
2018-06-03T06:06:45.707Z,1006.03
2018-06-03T06:07:45.711Z,1006.02
2018-06-03T06:08:45.685Z,1006.03
2018-06-03T06:09:45.687Z,1006.03
2018-06-03T06:10:45.676Z,1006.04
2018-06-03T06:11:45.662Z,1006.08
2018-06-03T06:12:45.654Z,1006.05
2018-06-03T06:13:45.653Z,1006.06
2018-06-03T06:14:45.638Z,1006.05
2018-06-03T06:15:45.847Z,1006.06
2018-06-03T06:16:45.624Z,1006.04
2018-06-03T06:17:45.619Z,1006.01
2018-06-03T06:18:45.623Z,1006.04
2018-06-03T06:19:45.609Z,1006.04
2018-06-03T06:20:45.629Z,1006.05
2018-06-03T06:21:45.586Z,1006.05
2018-06-03T06:22:45.584Z,1006.07
2018-06-03T06:23:45.563Z,1006.04
2018-06-03T06:24:45.564Z,1006.05
2018-06-03T06:25:45.585Z,1006.09
2018-06-03T06:26:45.547Z,1006.07
2018-06-03T06:27:45.533Z,1006.08
2018-06-03T06:28:45.527Z,1006.05
2018-06-03T06:29:45.519Z,1006.05
2018-06-03T06:30:45.551Z,1006.07
2018-06-03T06:31:45.505Z,1006.08
2018-06-03T06:32:45.515Z,1006.04
2018-06-03T06:33:45.495Z,1006.10
2018-06-03T06:34:45.510Z,1006.07
2018-06-03T06:35:45.472Z,1006.14
2018-06-03T06:36:45.469Z,1006.12
2018-06-03T06:37:45.475Z,1006.16
2018-06-03T06:38:45.445Z,1006.14
2018-06-03T06:39:45.441Z,1006.21
2018-06-03T06:40:45.485Z,1006.20
2018-06-03T06:41:45.432Z,1006.18
2018-06-03T06:42:45.454Z,1006.24
2018-06-03T06:43:45.454Z,1006.27
2018-06-03T06:44:45.406Z,1006.29
2018-06-03T06:45:45.405Z,1006.27
2018-06-03T06:46:45.396Z,1006.30
2018-06-03T06:47:45.392Z,1006.27
2018-06-03T06:48:45.408Z,1006.26
2018-06-03T06:49:45.373Z,1006.26
2018-06-03T06:50:45.369Z,1006.30
2018-06-03T06:51:45.371Z,1006.30
2018-06-03T06:52:45.353Z,1006.30
2018-06-03T06:53:45.348Z,1006.32
2018-06-03T06:54:45.350Z,1006.35
2018-06-03T06:55:45.326Z,1006.32
2018-06-03T06:56:45.324Z,1006.35
2018-06-03T06:57:45.334Z,1006.35
2018-06-03T06:58:45.312Z,1006.34
2018-06-03T06:59:45.310Z,1006.37
2018-06-03T07:00:45.297Z,1006.39
2018-06-03T07:01:45.299Z,1006.40
2018-06-03T07:02:45.285Z,1006.40
2018-06-03T07:03:45.271Z,1006.36
2018-06-03T07:04:45.315Z,1006.38
2018-06-03T07:05:45.278Z,1006.40
2018-06-03T07:06:45.306Z,1006.41
2018-06-03T07:07:45.248Z,1006.37
2018-06-03T07:08:45.230Z,1006.33
2018-06-03T07:09:47.263Z,1006.38
2018-06-03T07:10:45.265Z,1006.39
2018-06-03T07:11:45.217Z,1006.38
2018-06-03T07:12:45.208Z,1006.41
2018-06-03T07:13:45.196Z,1006.40
2018-06-03T07:14:45.202Z,1006.41
2018-06-03T07:15:45.224Z,1006.42
2018-06-03T07:16:45.189Z,1006.42
2018-06-03T07:17:45.193Z,1006.42
2018-06-03T07:18:45.174Z,1006.42
2018-06-03T07:19:45.160Z,1006.41
2018-06-03T07:20:45.198Z,1006.42
2018-06-03T07:21:45.149Z,1006.36
2018-06-03T07:22:45.171Z,1006.37
2018-06-03T07:23:45.138Z,1006.32
2018-06-03T07:24:45.137Z,1006.38
2018-06-03T07:25:45.181Z,1006.37
2018-06-03T07:26:45.116Z,1006.41
2018-06-03T07:27:45.111Z,1006.37
2018-06-03T07:28:45.106Z,1006.39
2018-06-03T07:29:45.097Z,1006.37
2018-06-03T07:30:45.081Z,1006.35
2018-06-03T07:31:45.075Z,1006.34
2018-06-03T07:32:45.078Z,1006.34
2018-06-03T07:33:45.068Z,1006.32
2018-06-03T07:34:45.069Z,1006.32
2018-06-03T07:35:45.082Z,1006.27
2018-06-03T07:36:45.049Z,1006.29
2018-06-03T07:37:45.036Z,1006.31
2018-06-03T07:38:45.042Z,1006.32
2018-06-03T07:39:45.032Z,1006.34
2018-06-03T07:40:45.084Z,1006.33
2018-06-03T07:41:45.016Z,1006.33
2018-06-03T07:42:45.013Z,1006.33
2018-06-03T07:43:44.999Z,1006.26
2018-06-03T07:44:44.994Z,1006.29
2018-06-03T07:45:44.991Z,1006.28
2018-06-03T07:46:44.992Z,1006.28
2018-06-03T07:47:45.243Z,1006.25
2018-06-03T07:48:45.007Z,1006.29
2018-06-03T07:49:44.964Z,1006.28
2018-06-03T07:50:44.967Z,1006.26
2018-06-03T07:51:44.955Z,1006.30
2018-06-03T07:52:44.949Z,1006.30
2018-06-03T07:53:44.967Z,1006.30
2018-06-03T07:54:44.939Z,1006.27
2018-06-03T07:55:44.922Z,1006.28
2018-06-03T07:56:44.925Z,1006.29
2018-06-03T07:57:44.920Z,1006.29
2018-06-03T07:58:44.957Z,1006.30
2018-06-03T07:59:44.894Z,1006.29
2018-06-03T08:00:44.892Z,1006.28
2018-06-03T08:01:44.885Z,1006.29
2018-06-03T08:02:44.901Z,1006.30
2018-06-03T08:03:44.866Z,1006.28
2018-06-03T08:04:44.878Z,1006.27
2018-06-03T08:05:44.861Z,1006.30
2018-06-03T08:06:44.853Z,1006.32
2018-06-03T08:07:44.852Z,1006.34
2018-06-03T08:08:44.859Z,1006.33
2018-06-03T08:09:44.840Z,1006.34
2018-06-03T08:10:44.824Z,1006.37
2018-06-03T08:11:44.826Z,1006.35
2018-06-03T08:12:44.817Z,1006.35
2018-06-03T08:13:44.820Z,1006.34
2018-06-03T08:14:44.906Z,1006.34
2018-06-03T08:15:44.799Z,1006.33
2018-06-03T08:16:44.795Z,1006.34
2018-06-03T08:17:44.799Z,1006.32
2018-06-03T08:18:44.790Z,1006.36
2018-06-03T08:19:44.772Z,1006.34
2018-06-03T08:20:44.791Z,1006.36
2018-06-03T08:21:44.760Z,1006.38
2018-06-03T08:22:44.763Z,1006.39
2018-06-03T08:23:44.743Z,1006.35
2018-06-03T08:24:44.765Z,1006.37
2018-06-03T08:25:44.724Z,1006.39
2018-06-03T08:26:44.727Z,1006.40
2018-06-03T08:27:44.724Z,1006.38
2018-06-03T08:28:44.715Z,1006.36
2018-06-03T08:29:44.870Z,1006.39
2018-06-03T08:30:44.694Z,1006.36
2018-06-03T08:31:44.690Z,1006.34
2018-06-03T08:32:44.687Z,1006.37
2018-06-03T08:33:44.683Z,1006.37
2018-06-03T08:34:44.673Z,1006.34
2018-06-03T08:35:44.691Z,1006.35
2018-06-03T08:36:44.690Z,1006.39
2018-06-03T08:37:44.654Z,1006.39
2018-06-03T08:38:44.640Z,1006.39
2018-06-03T08:39:44.645Z,1006.35
2018-06-03T08:40:44.631Z,1006.35
2018-06-03T08:41:44.658Z,1006.44
2018-06-03T08:42:44.625Z,1006.46
2018-06-03T08:43:44.607Z,1006.48
2018-06-03T08:44:44.607Z,1006.41
2018-06-03T08:45:44.608Z,1006.42
2018-06-03T08:46:44.665Z,1006.43
2018-06-03T08:47:44.581Z,1006.44
2018-06-03T08:48:44.582Z,1006.44
2018-06-03T08:49:44.573Z,1006.41
2018-06-03T08:50:44.567Z,1006.46
2018-06-03T08:51:44.562Z,1006.47
2018-06-03T08:52:44.583Z,1006.43
2018-06-03T08:53:44.541Z,1006.45
2018-06-03T08:54:44.563Z,1006.42
2018-06-03T08:55:44.529Z,1006.43
2018-06-03T08:56:44.528Z,1006.39
2018-06-03T08:57:44.517Z,1006.44
2018-06-03T08:58:44.593Z,1006.39
2018-06-03T08:59:44.520Z,1006.38
2018-06-03T09:00:44.488Z,1006.40
2018-06-03T09:01:44.521Z,1006.38
2018-06-03T09:02:44.488Z,1006.44
2018-06-03T09:03:44.489Z,1006.42
2018-06-03T09:04:44.471Z,1006.42
2018-06-03T09:05:44.467Z,1006.41
2018-06-03T09:06:44.517Z,1006.43
2018-06-03T09:07:44.450Z,1006.46
2018-06-03T09:08:44.446Z,1006.46
2018-06-03T09:09:44.448Z,1006.47
2018-06-03T09:10:44.449Z,1006.48
2018-06-03T09:11:46.390Z,1006.47
2018-06-03T09:12:44.463Z,1006.49
2018-06-03T09:13:44.410Z,1006.48
2018-06-03T09:14:44.467Z,1006.47
2018-06-03T09:15:44.415Z,1006.42
2018-06-03T09:16:44.399Z,1006.44
2018-06-03T09:17:44.686Z,1006.51
2018-06-03T09:18:44.391Z,1006.47
2018-06-03T09:19:44.412Z,1006.46
2018-06-03T09:20:44.387Z,1006.45
2018-06-03T09:21:44.358Z,1006.48
2018-06-03T09:22:44.360Z,1006.46
2018-06-03T09:24:44.402Z,1006.50
2018-06-03T09:25:44.332Z,1006.47
2018-06-03T09:26:44.328Z,1006.43
2018-06-03T09:27:44.341Z,1006.39
2018-06-03T09:28:44.324Z,1006.44
2018-06-03T09:29:44.322Z,1006.45
2018-06-03T09:30:44.320Z,1006.42
2018-06-03T09:31:44.439Z,1006.47
2018-06-03T09:32:44.312Z,1006.48
2018-06-03T09:33:44.304Z,1006.48
2018-06-03T09:34:44.366Z,1006.44
2018-06-03T09:35:44.291Z,1006.40
2018-06-03T09:36:44.319Z,1006.41
2018-06-03T09:37:44.284Z,1006.38
2018-06-03T09:38:44.268Z,1006.38
2018-06-03T09:39:44.272Z,1006.40
2018-06-03T09:40:44.267Z,1006.41
2018-06-03T09:41:44.293Z,1006.41
2018-06-03T09:42:44.264Z,1006.40
2018-06-03T09:43:44.255Z,1006.36
2018-06-03T09:44:44.247Z,1006.35
2018-06-03T09:45:44.243Z,1006.36
2018-06-03T09:46:44.288Z,1006.36
2018-06-03T09:47:44.232Z,1006.39
2018-06-03T09:48:44.230Z,1006.38
2018-06-03T09:49:44.238Z,1006.37
2018-06-03T09:50:44.236Z,1006.42
2018-06-03T09:51:44.210Z,1006.41
2018-06-03T09:52:44.218Z,1006.46
2018-06-03T09:53:44.215Z,1006.46
2018-06-03T09:54:44.236Z,1006.40
2018-06-03T09:55:44.204Z,1006.34
2018-06-03T09:56:44.228Z,1006.39
2018-06-03T09:57:44.196Z,1006.37
2018-06-03T09:58:44.189Z,1006.44
2018-06-03T09:59:44.186Z,1006.43
2018-06-03T10:00:44.189Z,1006.40
2018-06-03T10:01:44.312Z,1006.43
2018-06-03T10:02:44.182Z,1006.45
2018-06-03T10:03:44.183Z,1006.46
2018-06-03T10:04:44.174Z,1006.46
2018-06-03T10:05:44.175Z,1006.37
2018-06-03T10:06:44.169Z,1006.43
2018-06-03T10:07:44.201Z,1006.41
2018-06-03T10:08:44.163Z,1006.42
2018-06-03T10:09:44.170Z,1006.46
2018-06-03T10:10:44.165Z,1006.48
2018-06-03T10:11:44.162Z,1006.49
2018-06-03T10:12:44.314Z,1006.45
2018-06-03T10:13:44.161Z,1006.44
2018-06-03T10:14:44.162Z,1006.51
2018-06-03T10:15:44.143Z,1006.41
2018-06-03T10:16:44.148Z,1006.53
2018-06-03T10:17:44.142Z,1006.41
2018-06-03T10:18:44.158Z,1006.39
2018-06-03T10:19:44.143Z,1006.46
2018-06-03T10:20:44.154Z,1006.38
2018-06-03T10:21:44.150Z,1006.33
2018-06-03T10:22:44.190Z,1006.38
2018-06-03T10:23:44.204Z,1006.36
2018-06-03T10:24:44.156Z,1006.58
2018-06-03T10:25:44.145Z,1006.44
2018-06-03T10:26:44.139Z,1006.52
2018-06-03T10:27:44.148Z,1006.64
2018-06-03T10:28:44.151Z,1007.13
2018-06-03T10:29:44.145Z,1006.96
2018-06-03T10:30:44.142Z,1007.60
2018-06-03T10:31:44.145Z,1007.05
2018-06-03T10:32:44.144Z,1006.99
2018-06-03T10:33:44.186Z,1006.99
2018-06-03T10:34:44.141Z,1006.99
2018-06-03T10:35:44.140Z,1006.92
2018-06-03T10:36:44.135Z,1006.46
2018-06-03T10:37:44.147Z,1006.56
2018-06-03T10:38:44.139Z,1006.68
2018-06-03T10:39:44.172Z,1006.54
2018-06-03T10:40:44.145Z,1006.49
2018-06-03T10:41:44.133Z,1007.14
2018-06-03T10:42:44.143Z,1006.70
2018-06-03T10:43:44.148Z,1006.80
2018-06-03T10:44:44.201Z,1006.46
2018-06-03T10:45:44.148Z,1006.65
2018-06-03T10:46:44.139Z,1006.50
2018-06-03T10:47:44.149Z,1006.76
2018-06-03T10:48:44.585Z,1006.79
2018-06-03T10:49:44.149Z,1006.81
2018-06-03T10:50:44.150Z,1006.47
2018-06-03T10:51:44.148Z,1007.01
2018-06-03T10:52:44.155Z,1007.08
2018-06-03T10:53:44.156Z,1007.03
2018-06-03T10:54:44.174Z,1007.08
2018-06-03T10:55:44.146Z,1006.80
2018-06-03T10:56:44.156Z,1007.13
2018-06-03T10:57:44.146Z,1006.80
2018-06-03T10:58:44.160Z,1006.82
2018-06-03T10:59:44.165Z,1006.50
2018-06-03T11:00:44.162Z,1006.69
2018-06-03T11:01:44.156Z,1006.88
2018-06-03T11:02:44.167Z,1007.12
2018-06-03T11:03:44.168Z,1007.32
2018-06-03T11:04:44.167Z,1007.36
2018-06-03T11:05:44.171Z,1007.26
2018-06-03T11:06:44.944Z,1007.13
2018-06-03T11:07:44.209Z,1007.17
2018-06-03T11:08:44.175Z,1007.33
2018-06-03T11:09:44.211Z,1007.25
2018-06-03T11:10:44.186Z,1007.16
2018-06-03T11:11:44.173Z,1007.21
2018-06-03T11:12:44.177Z,1007.19
2018-06-03T11:13:44.199Z,1007.05
2018-06-03T11:14:44.224Z,1007.03
2018-06-03T11:15:44.203Z,1007.12
2018-06-03T11:16:44.251Z,1007.12
2018-06-03T11:17:44.218Z,1007.09
2018-06-03T11:18:44.552Z,1007.05
2018-06-03T11:19:44.348Z,1007.09
2018-06-03T11:20:44.207Z,1007.00
2018-06-03T11:21:44.228Z,1007.08
2018-06-03T11:22:44.230Z,1007.06
2018-06-03T11:23:44.223Z,1007.11
2018-06-03T11:24:44.499Z,1007.11
2018-06-03T11:25:44.246Z,1007.04
2018-06-03T11:26:44.240Z,1007.06
2018-06-03T11:27:44.241Z,1007.03
2018-06-03T11:28:44.261Z,1007.08
2018-06-03T11:29:44.262Z,1007.08
2018-06-03T11:30:44.334Z,1007.06
2018-06-03T11:31:44.275Z,1007.07
2018-06-03T11:32:44.271Z,1007.06
2018-06-03T11:33:44.279Z,1007.03
2018-06-03T11:34:44.282Z,1007.05
2018-06-03T11:35:44.277Z,1007.02
2018-06-03T11:36:44.321Z,1006.96
2018-06-03T11:37:44.292Z,1006.99
2018-06-03T11:38:44.295Z,1006.97
2018-06-03T11:39:44.307Z,1006.99
2018-06-03T11:40:44.318Z,1007.02
2018-06-03T11:41:44.519Z,1006.84
2018-06-03T11:42:44.331Z,1007.00
2018-06-03T11:43:44.338Z,1006.21
2018-06-03T11:44:44.331Z,1006.14
2018-06-03T11:45:44.341Z,1006.20
2018-06-03T11:46:44.374Z,1006.18
2018-06-03T11:47:44.534Z,1006.22
2018-06-03T11:48:44.701Z,1006.23
2018-06-03T11:49:44.348Z,1006.22
2018-06-03T11:50:44.370Z,1006.20
2018-06-03T11:51:44.354Z,1006.29
2018-06-03T11:52:44.358Z,1006.24
2018-06-03T11:53:44.369Z,1006.14
2018-06-03T11:54:44.380Z,1006.22
2018-06-03T11:55:44.512Z,1006.18
2018-06-03T11:56:44.370Z,1006.19
2018-06-03T11:57:44.368Z,1006.21
2018-06-03T11:58:44.377Z,1006.17
2018-06-03T11:59:44.381Z,1006.33
2018-06-03T12:00:44.404Z,1006.27
2018-06-03T12:01:44.408Z,1006.24
2018-06-03T12:02:44.375Z,1006.25
2018-06-03T12:03:44.376Z,1006.18
2018-06-03T12:04:44.369Z,1006.15
2018-06-03T12:05:44.529Z,1006.15
2018-06-03T12:06:44.373Z,1006.19
2018-06-03T12:07:44.374Z,1006.15
2018-06-03T12:08:44.365Z,1006.13
2018-06-03T12:09:44.365Z,1006.14
2018-06-03T12:10:44.367Z,1006.14
2018-06-03T12:11:44.390Z,1006.13
2018-06-03T12:12:44.367Z,1006.14
2018-06-03T12:13:44.369Z,1006.14
2018-06-03T12:14:44.349Z,1006.11
2018-06-03T12:15:44.390Z,1006.10
2018-06-03T12:16:44.389Z,1006.08
2018-06-03T12:17:44.389Z,1006.06
2018-06-03T12:18:44.347Z,1006.05
2018-06-03T12:19:44.349Z,1006.03
2018-06-03T12:20:44.344Z,1006.06
2018-06-03T12:21:44.369Z,1006.02
2018-06-03T12:22:44.331Z,1006.06
2018-06-03T12:23:44.330Z,1006.04
2018-06-03T12:24:44.336Z,1006.01
2018-06-03T12:25:44.322Z,1005.99
2018-06-03T12:26:44.364Z,1005.97
2018-06-03T12:27:44.410Z,1006.01
2018-06-03T12:28:44.397Z,1005.97
2018-06-03T12:29:44.321Z,1006.00
2018-06-03T12:30:44.321Z,1005.90
2018-06-03T12:31:44.320Z,1005.91
2018-06-03T12:32:44.314Z,1005.93
2018-06-03T12:33:44.342Z,1005.95
2018-06-03T12:34:44.310Z,1005.90
2018-06-03T12:35:44.300Z,1005.88
2018-06-03T12:36:44.289Z,1005.93
2018-06-03T12:37:44.345Z,1005.84
2018-06-03T12:38:44.293Z,1005.84
2018-06-03T12:39:44.285Z,1005.90
2018-06-03T12:40:44.327Z,1005.88
2018-06-03T12:41:44.304Z,1005.88
2018-06-03T12:42:44.280Z,1005.87
2018-06-03T12:43:44.273Z,1005.84
2018-06-03T12:44:44.281Z,1005.84
2018-06-03T12:45:44.261Z,1005.82
2018-06-03T12:46:44.301Z,1005.78
2018-06-03T12:47:44.256Z,1005.79
2018-06-03T12:48:44.260Z,1005.77
2018-06-03T12:49:44.260Z,1005.76
2018-06-03T12:50:44.266Z,1005.79
2018-06-03T12:51:44.265Z,1005.78
2018-06-03T12:52:44.271Z,1005.79
2018-06-03T12:53:44.250Z,1005.75
2018-06-03T12:54:44.263Z,1005.72
2018-06-03T12:55:44.239Z,1005.71
2018-06-03T12:56:44.245Z,1005.68
2018-06-03T12:57:44.245Z,1005.68
2018-06-03T12:58:44.228Z,1005.67
2018-06-03T12:59:44.366Z,1005.65
2018-06-03T13:00:44.219Z,1005.63
2018-06-03T13:01:44.220Z,1005.67
2018-06-03T13:02:44.216Z,1005.66
2018-06-03T13:03:44.206Z,1005.70
2018-06-03T13:04:44.208Z,1005.74
2018-06-03T13:05:44.232Z,1005.74
2018-06-03T13:06:44.197Z,1005.70
2018-06-03T13:07:44.229Z,1005.68